Portada
METAR-TAF:

METAR-TAF

Aeroports :

Damasc, Síria

latitud: 33-25N, longitud: 036-31E, altitud: 608 m

Observació

L'informe es va fer fa 1 hora i 4 minuts, a les 13:00 UTC
Vent 20 kt del Oest/Sud-Oest
Temperatura 21°C
Humitat 30%
Pressió 1012 hPa
Visibilitat 10 km o més
Núvols disperses a una alçada de 3000 ft
Cel ennuvolat a una alçada de 10000 ft

METAR: OSDI 301300Z 25020KT 9999 SCT030 BKN100 21/03 Q1012

Hora: 17:04 (14:04 UTC)

Pronòstic

Pronòstic vàlid del 30 a les 00 UTC al 31 a les 06 UTC
Vent 15 kt del Sud-Oest
Visibilitat 10 km o més
Núvols disperses a una alçada de 3000 ft
Cel ennuvolat a una alçada de 10000 ft
Temporalment
l' 30 a les 00 UTC al 30 a les 24 UTC
Vent 20 kt del Oest amb ràfegues de 35 kt
Visibilitat: 6000 m
Escasses núvols a una alçada de 2500 ft
Cel ennuvolat a una alçada de 3000 ft
Cel cobert a una alçada de 10000 ft
xàfecs de pluja

TAF: OSDI 3000/3106 22015KT 9999 SCT030 BKN100 TEMPO 3000/3024 28020G35KT 6000 SHRA FEW025 CB BKN030 OVC100

Observacions i pronòstics meteorològics de més de 4000 aeroports (METAR i TAF).

Les estacions disponibles són els punts grocs i vermells al mapa.

Posi el ratolí al punt desitjat per veure el nom de l'estació.

Feu clic per veure les observacions i els pronòstics meteorològics.

Per canviar el mapa: feu clic els botons verds amb una creu de color negre per apropar; al botó verd amb un guió per allunyar la imatge; o en les fletxes verdes per a mapes adjacents.


METAR-TAF: